Time;durP1;ratioP1;P1;durP2;ratioP2;P2;SDS_P1;SDS_P2;PMS_P1;PMS_P2;Temp;Humidity;BMP_temperature;BMP_pressure;BME280_temperature;BME280_humidity;BME280_pressure;Samples;Min_cycle;Max_cycle;Signal;HPM_P1;HPM_P2
2021/11/06 00:01:59;;;;;;;26.92;12.88;;;3.90;99.90;;;;;;5029362;28;20025;-86
2021/11/06 00:04:26;;;;;;;45.97;16.52;;;3.90;99.90;;;;;;5027039;28;20495;-86
2021/11/06 00:06:53;;;;;;;50.47;17.58;;;3.90;99.90;;;;;;5018401;28;20050;-86
2021/11/06 00:09:20;;;;;;;34.90;14.32;;;3.80;99.90;;;;;;5017828;28;20136;-86
2021/11/06 00:11:47;;;;;;;50.83;18.58;;;3.90;99.90;;;;;;5018113;28;20510;-86
2021/11/06 00:14:13;;;;;;;35.55;15.38;;;3.90;99.90;;;;;;5036361;28;20057;-86
2021/11/06 00:16:40;;;;;;;31.05;14.27;;;3.90;99.90;;;;;;5017972;28;20092;-87
2021/11/06 00:19:07;;;;;;;25.73;12.80;;;4.00;99.90;;;;;;5017968;28;20060;-87
2021/11/06 00:21:34;;;;;;;21.67;11.38;;;4.00;99.90;;;;;;5018166;28;20045;-87
2021/11/06 00:24:01;;;;;;;19.98;11.52;;;4.00;99.90;;;;;;5035264;28;20054;-86
2021/11/06 00:26:27;;;;;;;25.63;12.77;;;3.90;99.90;;;;;;5017857;28;20136;-86
2021/11/06 00:28:54;;;;;;;22.08;11.70;;;3.80;99.90;;;;;;5035344;28;20084;-87
2021/11/06 00:31:21;;;;;;;27.73;12.70;;;3.80;99.90;;;;;;5017661;28;20478;-87
2021/11/06 00:33:48;;;;;;;35.88;13.77;;;3.80;99.90;;;;;;5017709;28;20140;-86
2021/11/06 00:36:14;;;;;;;32.95;13.30;;;3.80;99.90;;;;;;5035204;28;20041;-86
2021/11/06 00:38:41;;;;;;;31.23;13.80;;;3.80;99.90;;;;;;5017521;28;20049;-87
2021/11/06 00:41:08;;;;;;;28.80;12.55;;;3.80;99.90;;;;;;5017371;28;20045;-87
2021/11/06 00:43:35;;;;;;;35.58;13.85;;;3.90;99.90;;;;;;5017598;28;20129;-86
2021/11/06 00:46:01;;;;;;;24.40;12.70;;;3.90;99.90;;;;;;5034683;28;20045;-86
2021/11/06 00:48:28;;;;;;;25.02;11.73;;;4.00;99.90;;;;;;5017309;28;20562;-86
2021/11/06 00:50:55;;;;;;;25.88;11.93;;;4.10;99.90;;;;;;5017528;28;20041;-86
2021/11/06 00:53:22;;;;;;;21.45;12.32;;;4.10;99.90;;;;;;5017398;28;20413;-86
2021/11/06 00:55:48;;;;;;;26.10;13.45;;;4.10;99.90;;;;;;5034385;28;20140;-86
2021/11/06 00:58:15;;;;;;;44.78;16.05;;;4.20;99.90;;;;;;5017154;28;20513;-86
2021/11/06 01:00:42;;;;;;;31.00;14.32;;;4.20;99.90;;;;;;5016649;28;20132;-86
2021/11/06 01:03:09;;;;;;;34.17;14.68;;;4.20;99.90;;;;;;5034925;28;20060;-86
2021/11/06 01:05:36;;;;;;;45.80;16.55;;;4.20;99.90;;;;;;5017422;28;20050;-86
2021/11/06 01:08:03;;;;;;;41.38;16.48;;;4.10;99.90;;;;;;5016816;28;20049;-86
2021/11/06 01:10:30;;;;;;;33.80;16.08;;;4.10;99.90;;;;;;5016885;28;20140;-86
2021/11/06 01:12:57;;;;;;;29.48;15.38;;;4.20;99.90;;;;;;5016969;28;20046;-86
2021/11/06 01:15:24;;;;;;;49.25;16.52;;;4.30;99.90;;;;;;5017062;28;20045;-86
2021/11/06 01:17:50;;;;;;;38.92;15.90;;;4.20;99.90;;;;;;5022879;28;20056;-87
2021/11/06 01:20:18;;;;;;;50.08;17.33;;;4.20;99.90;;;;;;5033117;28;20132;-87
2021/11/06 01:22:45;;;;;;;40.13;16.25;;;4.10;99.90;;;;;;5017140;28;20050;-87
2021/11/06 01:25:14;;;;;;;42.35;17.08;;;4.20;99.90;;;;;;5016706;28;20052;-86
2021/11/06 01:27:41;;;;;;;36.88;15.50;;;4.10;99.90;;;;;;5016783;28;20053;-87
2021/11/06 01:30:09;;;;;;;45.33;18.08;;;4.10;99.90;;;;;;5016566;28;20051;-86
2021/11/06 01:32:36;;;;;;;33.92;15.13;;;4.20;99.90;;;;;;5016577;28;20057;-86
2021/11/06 01:35:05;;;;;;;39.50;15.90;;;4.20;99.90;;;;;;5016482;28;20088;-86
2021/11/06 01:37:32;;;;;;;28.27;14.48;;;4.30;99.90;;;;;;5016283;28;20064;-86
2021/11/06 01:39:58;;;;;;;32.95;15.23;;;4.30;99.90;;;;;;5016670;28;20060;-86
2021/11/06 01:42:27;;;;;;;31.90;14.52;;;4.40;99.90;;;;;;5016384;28;20124;-86
2021/11/06 01:44:53;;;;;;;24.90;12.63;;;4.40;99.90;;;;;;5016101;28;20136;-87
2021/11/06 01:47:20;;;;;;;27.25;13.75;;;4.40;99.90;;;;;;5033841;28;20441;-86
2021/11/06 01:49:47;;;;;;;38.45;15.52;;;4.40;99.90;;;;;;5016309;28;20056;-86
2021/11/06 01:52:14;;;;;;;30.80;14.18;;;4.30;99.90;;;;;;5015803;28;20049;-86
2021/11/06 01:54:41;;;;;;;37.10;15.40;;;4.20;99.90;;;;;;5033682;28;20399;-86
2021/11/06 01:57:07;;;;;;;28.10;14.65;;;4.10;99.90;;;;;;5016185;28;20383;-86
2021/11/06 01:59:34;;;;;;;25.83;13.23;;;4.20;99.90;;;;;;5033584;28;20049;-86
2021/11/06 02:02:02;;;;;;;27.67;13.35;;;4.20;99.90;;;;;;5016112;28;20049;-87
2021/11/06 02:04:29;;;;;;;27.67;13.85;;;4.20;99.90;;;;;;5015326;28;20069;-86
2021/11/06 02:06:56;;;;;;;42.38;15.88;;;4.20;99.90;;;;;;5033289;28;20063;-86
2021/11/06 02:09:23;;;;;;;23.80;13.88;;;4.10;99.90;;;;;;5015864;28;20049;-87
2021/11/06 02:11:50;;;;;;;25.55;13.52;;;4.10;99.90;;;;;;5033273;28;20052;-87
2021/11/06 02:14:17;;;;;;;24.95;12.60;;;4.20;99.90;;;;;;5016136;28;20128;-87
2021/11/06 02:16:43;;;;;;;24.30;12.85;;;4.30;99.90;;;;;;5016335;28;20052;-86
2021/11/06 02:19:10;;;;;;;23.35;12.73;;;4.30;99.90;;;;;;5016042;28;20493;-86
2021/11/06 02:21:37;;;;;;;22.83;13.43;;;4.30;99.90;;;;;;5015888;28;20041;-87
2021/11/06 02:24:04;;;;;;;34.80;14.02;;;4.30;99.90;;;;;;5015682;28;20064;-86
2021/11/06 02:26:31;;;;;;;26.85;12.23;;;4.30;99.90;;;;;;5015782;28;20059;-87
2021/11/06 02:29:10;;;;;;;29.13;12.38;;;4.20;99.90;;;;;;5033199;28;20113;-87
2021/11/06 02:31:37;;;;;;;27.85;12.98;;;4.10;99.90;;;;;;5016028;28;20057;-87
2021/11/06 02:34:04;;;;;;;18.05;11.10;;;4.10;99.90;;;;;;5015836;28;20056;-86
2021/11/06 02:36:30;;;;;;;23.63;11.55;;;4.10;99.90;;;;;;5043568;28;20061;-87
2021/11/06 02:38:58;;;;;;;21.42;11.02;;;4.10;99.90;;;;;;5040722;28;20486;-87
2021/11/06 02:41:25;;;;;;;26.10;11.35;;;3.90;99.90;;;;;;5015886;28;20041;-87
2021/11/06 02:43:55;;;;;;;20.88;12.00;;;3.90;99.90;;;;;;5016681;28;20053;-87
2021/11/06 02:46:22;;;;;;;18.77;11.35;;;3.90;99.90;;;;;;5015912;28;20052;-86
2021/11/06 02:48:49;;;;;;;29.45;11.95;;;3.90;99.90;;;;;;5033050;28;20063;-86
2021/11/06 02:51:16;;;;;;;20.90;11.05;;;3.90;99.90;;;;;;5032991;28;20387;-86
2021/11/06 02:53:43;;;;;;;24.70;11.93;;;4.00;99.90;;;;;;5015915;28;20053;-86
2021/11/06 02:56:09;;;;;;;34.65;13.50;;;4.00;99.90;;;;;;5015487;28;20046;-87
2021/11/06 02:58:36;;;;;;;26.83;12.40;;;4.00;99.90;;;;;;5015811;28;20055;-86
2021/11/06 03:01:03;;;;;;;27.38;12.57;;;4.00;99.90;;;;;;5032999;28;20410;-87
2021/11/06 03:03:30;;;;;;;31.45;13.70;;;4.20;99.90;;;;;;5015396;28;20136;-86
2021/11/06 03:05:57;;;;;;;25.48;12.98;;;4.20;99.90;;;;;;5015645;28;20045;-86
2021/11/06 03:08:24;;;;;;;31.77;13.90;;;4.20;99.90;;;;;;5015471;28;20494;-87
2021/11/06 03:10:51;;;;;;;33.90;13.38;;;4.30;99.90;;;;;;5015478;28;20057;-86
2021/11/06 03:13:18;;;;;;;30.33;14.35;;;4.40;99.90;;;;;;5015954;28;20164;-86
2021/11/06 03:15:45;;;;;;;32.55;14.13;;;4.40;99.90;;;;;;5015360;28;20059;-87
2021/11/06 03:18:11;;;;;;;24.15;13.02;;;4.40;99.90;;;;;;5015205;28;20049;-87
2021/11/06 03:20:38;;;;;;;40.17;15.10;;;4.40;99.90;;;;;;5015445;28;20416;-86
2021/11/06 03:23:05;;;;;;;23.48;12.65;;;4.40;99.90;;;;;;5033032;28;20045;-86
2021/11/06 03:25:32;;;;;;;19.48;11.77;;;4.40;99.90;;;;;;5018498;28;20057;-87
2021/11/06 03:27:59;;;;;;;27.50;13.27;;;4.50;99.90;;;;;;5019140;28;20064;-87
2021/11/06 03:30:25;;;;;;;24.92;12.43;;;4.50;99.90;;;;;;5036727;28;20095;-86
2021/11/06 03:32:53;;;;;;;26.40;12.05;;;4.50;99.90;;;;;;5036639;28;20558;-87
2021/11/06 03:35:21;;;;;;;19.20;11.60;;;4.50;99.90;;;;;;5019386;28;20055;-86
2021/11/06 03:37:49;;;;;;;26.17;11.85;;;4.50;99.90;;;;;;5019273;28;20054;-87
2021/11/06 03:40:16;;;;;;;37.13;12.80;;;4.50;99.90;;;;;;5018837;28;20128;-86
2021/11/06 03:42:43;;;;;;;27.02;13.20;;;4.50;99.90;;;;;;5019210;28;20059;-86
2021/11/06 03:45:10;;;;;;;32.03;13.35;;;4.50;99.90;;;;;;5018798;28;20056;-86
2021/11/06 03:47:37;;;;;;;20.25;11.38;;;4.50;99.90;;;;;;5019090;28;20391;-87
2021/11/06 03:50:07;;;;;;;24.70;12.25;;;4.50;99.90;;;;;;5019257;28;20421;-86
2021/11/06 03:52:34;;;;;;;22.35;10.68;;;4.50;99.90;;;;;;5019465;28;20063;-86
2021/11/06 03:55:01;;;;;;;21.38;10.10;;;4.40;99.90;;;;;;5035079;28;20041;-86
2021/11/06 03:57:28;;;;;;;15.70;9.77;;;4.30;99.90;;;;;;5036396;28;20140;-87
2021/11/06 03:59:55;;;;;;;27.02;11.85;;;4.10;99.90;;;;;;5018654;28;20160;-86
2021/11/06 04:02:21;;;;;;;18.38;10.13;;;4.00;99.90;;;;;;5018440;28;20046;-86
2021/11/06 04:04:49;;;;;;;20.70;11.52;;;4.00;99.90;;;;;;5035872;28;20057;-87
2021/11/06 04:07:16;;;;;;;23.02;12.70;;;3.90;99.90;;;;;;5018458;28;20053;-86
2021/11/06 04:09:42;;;;;;;21.88;11.48;;;4.00;99.90;;;;;;5018083;28;20140;-86
2021/11/06 04:12:09;;;;;;;25.70;11.75;;;4.00;99.90;;;;;;5035704;28;20049;-87
2021/11/06 04:14:36;;;;;;;24.42;11.38;;;3.90;99.90;;;;;;5035707;28;20060;-87
2021/11/06 04:17:03;;;;;;;19.45;11.30;;;3.90;99.90;;;;;;5018274;28;20057;-87
2021/11/06 04:19:30;;;;;;;23.33;12.23;;;3.80;99.90;;;;;;5018419;28;20140;-87
2021/11/06 04:21:57;;;;;;;19.88;10.27;;;3.70;99.90;;;;;;5018231;28;20056;-86
2021/11/06 04:24:25;;;;;;;19.58;10.93;;;3.60;99.90;;;;;;5018353;28;20053;-86
2021/11/06 04:26:52;;;;;;;29.90;12.02;;;3.50;99.90;;;;;;5035206;28;20481;-87
2021/11/06 04:29:19;;;;;;;26.08;12.80;;;3.50;99.90;;;;;;5017824;28;20075;-86
2021/11/06 04:31:46;;;;;;;28.98;13.07;;;3.60;99.90;;;;;;5035437;28;20049;-87
2021/11/06 04:34:12;;;;;;;32.22;13.57;;;3.70;99.90;;;;;;5034936;28;20553;-87
2021/11/06 04:36:39;;;;;;;25.08;12.70;;;3.80;99.90;;;;;;5016584;28;20050;-86
2021/11/06 04:39:06;;;;;;;33.10;13.10;;;3.80;99.90;;;;;;5017603;28;20079;-86
2021/11/06 04:41:33;;;;;;;23.08;11.82;;;3.90;99.90;;;;;;5017679;28;20046;-86
2021/11/06 04:44:00;;;;;;;20.48;11.65;;;3.80;99.90;;;;;;5034686;28;20060;-87
2021/11/06 04:46:27;;;;;;;25.23;11.60;;;3.80;99.90;;;;;;5034621;28;20053;-86
2021/11/06 04:48:53;;;;;;;24.13;11.05;;;3.80;99.90;;;;;;5035042;28;20045;-87
2021/11/06 04:51:21;;;;;;;22.48;12.10;;;3.70;99.90;;;;;;5018039;28;20054;-87
2021/11/06 04:53:48;;;;;;;23.58;11.10;;;3.60;99.90;;;;;;5017571;28;20071;-86
2021/11/06 04:56:15;;;;;;;18.27;11.25;;;3.50;99.90;;;;;;5017512;28;20045;-86
2021/11/06 04:58:42;;;;;;;18.33;10.95;;;3.40;99.90;;;;;;5017122;28;20088;-86
2021/11/06 05:01:08;;;;;;;18.25;11.73;;;3.40;99.90;;;;;;5017405;28;20049;-87
2021/11/06 05:03:35;;;;;;;19.13;11.80;;;3.30;99.90;;;;;;5034607;28;20450;-86
2021/11/06 05:06:02;;;;;;;22.20;13.13;;;3.30;99.90;;;;;;5016888;28;20108;-86
2021/11/06 05:08:29;;;;;;;25.17;13.30;;;3.30;99.90;;;;;;5017557;28;20137;-85
2021/11/06 05:10:56;;;;;;;21.45;11.15;;;3.30;99.90;;;;;;5029253;28;20084;-88
2021/11/06 05:13:23;;;;;;;33.25;13.25;;;3.40;99.90;;;;;;5023386;28;20050;-87
2021/11/06 05:15:50;;;;;;;27.13;13.13;;;3.40;99.90;;;;;;5017105;28;20052;-87
2021/11/06 05:18:19;;;;;;;24.15;11.75;;;3.40;99.90;;;;;;5017168;28;20060;-86
2021/11/06 05:20:46;;;;;;;29.33;13.88;;;3.40;99.90;;;;;;5034432;28;20049;-87
2021/11/06 05:23:14;;;;;;;17.88;10.77;;;3.40;99.90;;;;;;5017082;28;20045;-87
2021/11/06 05:25:41;;;;;;;28.30;13.07;;;3.30;99.90;;;;;;5034373;28;20056;-87
2021/11/06 05:28:08;;;;;;;24.17;11.88;;;3.20;99.90;;;;;;5016929;28;20055;-87
2021/11/06 05:30:35;;;;;;;23.08;11.40;;;3.10;99.90;;;;;;5017223;28;20060;-87
2021/11/06 05:33:03;;;;;;;22.83;11.45;;;3.00;99.90;;;;;;5034311;28;20057;-86
2021/11/06 05:35:30;;;;;;;25.20;10.63;;;2.80;99.90;;;;;;5016828;28;20128;-86
2021/11/06 05:37:57;;;;;;;23.77;10.60;;;2.70;99.90;;;;;;5016773;28;20409;-87
2021/11/06 05:40:24;;;;;;;20.60;10.32;;;2.70;99.90;;;;;;5033922;28;20052;-86
2021/11/06 05:42:51;;;;;;;20.38;10.13;;;2.60;99.90;;;;;;5016907;28;20052;-86
2021/11/06 05:45:17;;;;;;;16.98;10.43;;;2.50;99.90;;;;;;5034013;28;20045;-86
2021/11/06 05:47:44;;;;;;;14.35;8.93;;;2.40;99.90;;;;;;5016455;28;20049;-86
2021/11/06 05:50:13;;;;;;;15.70;9.50;;;2.30;99.90;;;;;;5016661;28;20053;-86
2021/11/06 05:52:40;;;;;;;17.30;9.00;;;2.20;99.90;;;;;;5034357;28;20132;-87
2021/11/06 05:55:09;;;;;;;17.35;9.00;;;2.20;99.90;;;;;;5016380;28;20049;-86
2021/11/06 05:57:37;;;;;;;21.00;11.13;;;2.10;99.90;;;;;;5016762;28;20132;-86
2021/11/06 06:00:07;;;;;;;15.43;9.15;;;2.10;99.90;;;;;;5016394;28;20045;-86
2021/11/06 06:02:34;;;;;;;17.65;9.40;;;2.10;99.90;;;;;;5033874;28;20056;-86
2021/11/06 06:05:00;;;;;;;14.52;8.52;;;2.00;99.90;;;;;;5016231;28;20049;-87
2021/11/06 06:07:27;;;;;;;16.10;9.70;;;2.00;99.90;;;;;;5033667;28;20053;-87
2021/11/06 06:09:54;;;;;;;27.30;10.93;;;2.00;99.90;;;;;;5016117;28;20067;-87
2021/11/06 06:12:21;;;;;;;19.77;10.27;;;1.80;99.90;;;;;;5016365;28;20076;-87
2021/11/06 06:14:48;;;;;;;17.83;9.32;;;1.70;99.90;;;;;;5015875;28;20081;-87
2021/11/06 06:17:14;;;;;;;20.65;10.45;;;1.70;99.90;;;;;;5033775;28;20383;-86
2021/11/06 06:19:41;;;;;;;23.65;10.70;;;1.70;99.90;;;;;;5033670;28;20061;-87
2021/11/06 06:22:08;;;;;;;34.67;12.32;;;1.70;99.90;;;;;;5033280;28;20502;-87
2021/11/06 06:24:35;;;;;;;28.25;11.75;;;1.70;99.90;;;;;;5033557;28;20060;-87
2021/11/06 06:27:01;;;;;;;22.60;11.13;;;1.70;99.90;;;;;;5017042;28;20443;-87
2021/11/06 06:29:28;;;;;;;28.20;12.23;;;1.60;99.90;;;;;;5050303;28;20081;-87
2021/11/06 06:31:56;;;;;;;40.10;15.63;;;1.60;99.90;;;;;;5016805;28;20490;-86
2021/11/06 06:34:23;;;;;;;30.95;15.50;;;1.60;99.90;;;;;;5033139;28;20199;-87
2021/11/06 06:36:49;;;;;;;23.35;11.60;;;1.60;99.90;;;;;;5015884;28;20049;-87
2021/11/06 06:39:16;;;;;;;24.63;10.98;;;1.60;99.90;;;;;;5016098;28;20084;-87
2021/11/06 06:41:44;;;;;;;29.48;12.73;;;1.70;99.90;;;;;;5015997;28;20060;-87
2021/11/06 06:44:11;;;;;;;39.03;14.32;;;1.70;99.90;;;;;;5015779;28;20132;-87
2021/11/06 06:46:38;;;;;;;35.72;14.30;;;1.80;99.90;;;;;;5015953;28;20052;-87
2021/11/06 06:49:05;;;;;;;33.88;13.63;;;1.80;99.90;;;;;;5033107;28;20045;-87
2021/11/06 06:51:32;;;;;;;38.05;15.13;;;1.90;99.90;;;;;;5015831;28;20049;-87
2021/11/06 06:53:59;;;;;;;22.63;12.23;;;2.00;99.90;;;;;;5015969;28;20418;-87
2021/11/06 06:56:25;;;;;;;31.08;12.82;;;2.00;99.90;;;;;;5015888;28;20049;-87
2021/11/06 06:58:52;;;;;;;22.95;11.75;;;1.90;99.90;;;;;;5016563;28;20144;-87
2021/11/06 07:01:19;;;;;;;31.08;12.63;;;1.90;99.90;;;;;;5020213;28;20060;-88
2021/11/06 07:03:46;;;;;;;26.40;11.65;;;1.80;99.90;;;;;;5019911;28;20041;-88
2021/11/06 07:06:13;;;;;;;17.88;10.02;;;1.80;99.90;;;;;;5019428;28;20145;-88
2021/11/06 07:08:39;;;;;;;26.00;10.90;;;1.80;99.90;;;;;;5036841;28;20064;-87
2021/11/06 07:11:06;;;;;;;21.13;11.13;;;1.80;99.90;;;;;;5015840;28;20054;-87
2021/11/06 07:13:35;;;;;;;25.90;11.98;;;1.80;99.90;;;;;;5016032;28;20046;-87
2021/11/06 07:16:02;;;;;;;75.03;25.58;;;1.90;99.90;;;;;;5017371;28;20057;-88
2021/11/06 07:18:29;;;;;;;50.22;20.50;;;2.00;99.90;;;;;;5020233;28;20050;-87
2021/11/06 07:20:56;;;;;;;28.73;14.35;;;1.90;99.90;;;;;;5017590;28;20048;-87
2021/11/06 07:23:24;;;;;;;26.75;12.60;;;2.00;99.90;;;;;;5017114;28;20132;-88
2021/11/06 07:25:51;;;;;;;44.10;26.27;;;2.00;99.90;;;;;;5000384;28;20056;-87
2021/11/06 07:28:17;;;;;;;32.92;17.55;;;2.00;99.90;;;;;;5016133;28;20050;-87
2021/11/06 07:30:44;;;;;;;25.98;13.73;;;2.00;99.90;;;;;;5015353;28;20513;-88
2021/11/06 07:33:11;;;;;;;30.23;14.52;;;2.00;99.90;;;;;;5017123;28;20050;-88
2021/11/06 07:35:38;;;;;;;26.40;14.80;;;2.10;99.90;;;;;;5015959;28;20123;-88
2021/11/06 07:38:05;;;;;;;38.88;15.45;;;2.00;99.90;;;;;;5016501;28;20418;-88
2021/11/06 07:40:31;;;;;;;48.72;21.20;;;2.10;99.90;;;;;;5016053;28;20046;-88
2021/11/06 07:42:59;;;;;;;34.63;18.10;;;2.20;99.90;;;;;;5016130;28;20083;-87
2021/11/06 07:45:25;;;;;;;48.17;19.40;;;2.30;99.90;;;;;;5030737;28;20081;-87
2021/11/06 07:47:52;;;;;;;43.65;22.08;;;2.20;99.90;;;;;;5019475;28;20398;-87
2021/11/06 07:50:19;;;;;;;40.55;17.75;;;2.30;99.90;;;;;;5015632;28;20501;-88
2021/11/06 07:52:46;;;;;;;66.47;37.47;;;2.30;99.90;;;;;;5015864;28;20088;-88
2021/11/06 07:55:13;;;;;;;54.20;26.55;;;2.40;99.90;;;;;;5016342;28;20056;-88
2021/11/06 07:57:40;;;;;;;65.63;28.55;;;2.60;99.90;;;;;;5013651;28;20410;-87
2021/11/06 08:00:10;;;;;;;72.78;31.38;;;2.70;99.90;;;;;;5014451;28;20406;-87
2021/11/06 08:02:38;;;;;;;36.35;17.30;;;2.70;99.90;;;;;;5013543;28;20072;-88
2021/11/06 08:05:07;;;;;;;48.22;21.00;;;2.70;99.90;;;;;;5014202;28;20137;-88
2021/11/06 08:07:35;;;;;;;40.13;17.67;;;3.00;99.90;;;;;;5013576;28;20414;-87
2021/11/06 08:10:03;;;;;;;186.90;32.88;;;3.30;99.90;;;;;;5022394;28;20558;-88
2021/11/06 08:12:31;;;;;;;39.08;18.48;;;3.80;99.90;;;;;;5018457;28;20053;-88
2021/11/06 08:14:57;;;;;;;182.70;34.80;;;4.20;99.90;;;;;;5018413;28;20050;-87
2021/11/06 08:17:24;;;;;;;63.53;23.25;;;4.50;99.90;;;;;;5036046;28;20053;-87
2021/11/06 08:19:51;;;;;;;52.70;26.38;;;4.60;99.90;;;;;;5018325;28;20060;-87
2021/11/06 08:22:18;;;;;;;200.88;49.38;;;4.80;99.90;;;;;;5018524;28;20045;-87
2021/11/06 08:24:45;;;;;;;148.65;41.20;;;5.00;99.90;;;;;;5018012;28;20644;-88
2021/11/06 08:27:11;;;;;;;95.30;36.20;;;4.90;99.90;;;;;;5018319;28;20049;-88
2021/11/06 08:29:38;;;;;;;77.72;29.52;;;4.80;99.90;;;;;;5018446;28;20509;-87
2021/11/06 08:32:06;;;;;;;56.22;24.27;;;4.70;99.90;;;;;;5018329;28;20046;-88
2021/11/06 08:34:32;;;;;;;82.97;29.83;;;4.80;99.90;;;;;;5018031;28;20045;-88
2021/11/06 08:37:00;;;;;;;42.78;22.48;;;5.00;99.90;;;;;;5017908;28;20045;-89
2021/11/06 08:39:27;;;;;;;61.47;23.45;;;5.10;99.90;;;;;;5018202;28;20413;-88
2021/11/06 08:41:56;;;;;;;52.58;23.05;;;5.10;99.90;;;;;;5017982;28;20085;-89
2021/11/06 08:44:23;;;;;;;30.92;18.23;;;5.40;99.90;;;;;;5017886;28;20041;-89
2021/11/06 08:46:52;;;;;;;47.97;21.55;;;5.80;99.90;;;;;;5017735;28;20058;-88
2021/11/06 08:49:19;;;;;;;28.10;17.30;;;6.10;99.90;;;;;;5018230;28;20045;-89
2021/11/06 08:51:52;;;;;;;90.15;30.65;;;6.70;99.90;;;;;;5018235;28;20505;-89
2021/11/06 08:54:21;;;;;;;40.72;22.02;;;7.10;99.90;;;;;;5018142;28;20085;-90
2021/11/06 08:56:48;;;;;;;147.75;39.35;;;7.80;99.90;;;;;;5035193;28;20045;-89
2021/11/06 08:59:17;;;;;;;22.40;15.18;;;8.40;99.90;;;;;;5035629;28;20053;-90
2021/11/06 09:01:50;;;;;;;35.92;13.13;;;8.80;99.90;;;;;;5027099;28;20033;-89
2021/11/06 09:04:16;;;;;;;13.97;9.83;;;9.00;99.90;;;;;;5029653;28;20124;-90
2021/11/06 09:06:44;;;;;;;9.25;6.43;;;9.60;99.90;;;;;;5035473;28;20057;-90
2021/11/06 09:09:14;;;;;;;12.50;7.07;;;10.00;99.90;;;;;;5017486;28;20120;-90
2021/11/06 09:11:41;;;;;;;10.38;5.82;;;10.80;99.90;;;;;;5017602;28;20093;-90
2021/11/06 09:14:09;;;;;;;6.15;4.78;;;10.70;99.90;;;;;;5017407;28;20453;-90
2021/11/06 09:16:37;;;;;;;5.47;3.97;;;11.30;99.90;;;;;;5017410;28;20046;-90
2021/11/06 09:19:05;;;;;;;7.93;4.35;;;11.10;99.90;;;;;;5017486;28;20119;-90
2021/11/06 09:21:32;;;;;;;6.28;3.97;;;11.30;99.90;;;;;;5016708;28;20049;-90
2021/11/06 09:24:02;;;;;;;3.63;3.33;;;12.00;99.90;;;;;;5017400;28;20418;-90
2021/11/06 09:26:34;;;;;;;5.38;3.30;;;12.50;99.90;;;;;;5034614;28;20057;-91
2021/11/06 09:29:03;;;;;;;4.55;3.65;;;12.90;99.90;;;;;;5017263;28;20060;-90
2021/11/06 09:31:30;;;;;;;5.07;3.28;;;12.70;99.90;;;;;;5017152;28;20045;-90
2021/11/06 09:33:57;;;;;;;3.22;2.88;;;13.10;99.90;;;;;;5017036;28;20336;-90
2021/11/06 09:36:24;;;;;;;4.65;3.05;;;13.70;99.90;;;;;;5016983;28;20050;-90
2021/11/06 09:38:56;;;;;;;2.72;2.50;;;13.50;99.90;;;;;;5034550;28;20127;-89
2021/11/06 09:41:23;;;;;;;6.50;2.42;;;13.60;99.90;;;;;;5034527;28;20061;-90
2021/11/06 09:43:50;;;;;;;2.75;2.53;;;13.90;99.90;;;;;;5034156;28;20049;-89
2021/11/06 09:46:17;;;;;;;5.85;2.70;;;14.20;99.90;;;;;;5016670;28;20049;-90
2021/11/06 09:48:46;;;;;;;3.92;2.20;;;15.00;99.90;;;;;;5016809;28;20041;-90
2021/11/06 09:51:14;;;;;;;3.30;2.20;;;15.30;99.90;;;;;;5016996;28;20516;-90
2021/11/06 09:53:43;;;;;;;2.22;2.03;;;15.60;99.90;;;;;;5017059;28;20317;-90
2021/11/06 09:56:13;;;;;;;2.67;2.20;;;16.00;99.90;;;;;;5034308;28;20064;-91
2021/11/06 09:58:42;;;;;;;5.05;2.03;;;16.00;99.90;;;;;;5016997;28;20083;-89
2021/11/06 10:01:10;;;;;;;3.58;2.28;;;16.00;99.90;;;;;;5016652;28;20136;-90
2021/11/06 10:03:37;;;;;;;3.00;2.70;;;16.10;99.90;;;;;;5016963;28;20465;-91
2021/11/06 10:06:06;;;;;;;6.05;2.10;;;16.20;96.40;;;;;;5016468;28;20056;-90
2021/11/06 10:08:35;;;;;;;3.85;1.92;;;15.50;96.50;;;;;;5016832;28;20055;-91
2021/11/06 10:11:09;;;;;;;2.55;2.15;;;14.80;98.20;;;;;;5016760;28;20506;-88
2021/11/06 10:14:02;;;;;;;6.68;2.08;;;14.70;99.90;;;;;;5016781;28;20053;-90
2021/11/06 10:16:31;;;;;;;3.88;2.80;;;14.20;99.90;;;;;;5016597;28;20060;-90
2021/11/06 10:19:21;;;;;;;4.30;3.10;;;13.70;99.90;;;;;;5029480;28;20105;-89
2021/11/06 10:22:06;;;;;;;4.40;2.60;;;13.20;99.90;;;;;;5024265;28;20132;-89
2021/11/06 10:24:44;;;;;;;5.03;3.03;;;12.80;99.90;;;;;;5015269;28;20083;-90
2021/11/06 10:27:26;;;;;;;3.47;3.17;;;12.20;99.90;;;;;;5033632;28;20045;-89
2021/11/06 10:30:13;;;;;;;4.80;2.95;;;11.80;99.90;;;;;;5033698;28;20105;-89
2021/11/06 10:32:56;;;;;;;3.40;2.97;;;11.40;99.90;;;;;;5015911;28;20136;-91
2021/11/06 10:35:27;;;;;;;3.85;2.70;;;11.10;99.90;;;;;;5016017;28;20403;-89
2021/11/06 10:38:06;;;;;;;5.28;3.05;;;11.20;99.90;;;;;;5033292;28;20049;-88
2021/11/06 10:40:39;;;;;;;4.20;2.78;;;12.20;99.90;;;;;;5015474;28;20060;-90
2021/11/06 10:43:08;;;;;;;6.32;2.50;;;13.80;99.90;;;;;;5015581;28;20053;-89
2021/11/06 10:45:42;;;;;;;2.80;2.60;;;14.80;99.90;;;;;;5015438;28;20061;-90
2021/11/06 10:48:10;;;;;;;;;;;14.60;99.90;;;;;;5015427;28;20056;-88
2021/11/06 10:50:45;;;;;;;5.15;2.90;;;13.60;99.90;;;;;;5016012;28;20309;-89
2021/11/06 10:53:34;;;;;;;3.50;3.00;;;13.00;99.90;;;;;;5016048;28;20088;-90
2021/11/06 10:56:24;;;;;;;5.95;3.03;;;13.10;99.90;;;;;;5015640;28;20401;-88
2021/11/06 10:58:52;;;;;;;4.93;3.22;;;14.20;99.90;;;;;;5015537;28;20053;-90
2021/11/06 11:01:25;;;;;;;5.80;3.05;;;14.90;99.90;;;;;;5015605;28;20053;-87
2021/11/06 11:03:59;;;;;;;5.32;3.33;;;15.20;99.90;;;;;;5015415;28;20057;-89
2021/11/06 11:06:29;;;;;;;8.93;2.92;;;15.20;99.90;;;;;;5015947;28;20450;-89
2021/11/06 11:08:57;;;;;;;3.67;2.50;;;15.30;99.90;;;;;;5015556;28;20053;-88
2021/11/06 11:11:27;;;;;;;4.28;2.45;;;16.10;99.00;;;;;;5015701;28;20384;-89
2021/11/06 11:14:00;;;;;;;2.72;2.45;;;17.30;96.80;;;;;;5032938;28;20505;-89
2021/11/06 11:16:29;;;;;;;4.70;2.50;;;18.20;95.90;;;;;;5011667;28;20053;-87
2021/11/06 11:19:02;;;;;;;3.13;2.45;;;19.30;90.70;;;;;;5015840;28;20314;-87
2021/11/06 11:21:36;;;;;;;2.30;2.17;;;19.30;86.90;;;;;;5015800;28;20050;-87
2021/11/06 11:24:06;;;;;;;2.50;2.30;;;19.40;84.20;;;;;;5015335;28;20049;-90
2021/11/06 11:26:41;;;;;;;4.90;2.40;;;19.00;83.00;;;;;;5015557;28;20053;-90
2021/11/06 11:29:09;;;;;;;4.15;2.33;;;18.40;82.70;;;;;;5016278;28;20061;-91
2021/11/06 11:31:39;;;;;;;3.75;2.22;;;17.90;82.70;;;;;;5021945;28;20056;-89
2021/11/06 11:34:08;;;;;;;3.70;2.83;;;17.10;86.00;;;;;;5017840;28;20055;-89
2021/11/06 11:36:37;;;;;;;2.97;2.47;;;16.70;86.60;;;;;;5053406;28;20076;-89
2021/11/06 11:39:10;;;;;;;3.20;2.40;;;16.40;88.50;;;;;;5022074;28;20140;-90
2021/11/06 11:41:45;;;;;;;3.65;2.03;;;16.00;88.90;;;;;;5015923;28;20053;-90
2021/11/06 11:44:50;;;;;;;2.85;2.42;;;16.50;88.80;;;;;;5015872;28;20046;-90
2021/11/06 11:47:17;;;;;;;;;;;16.90;87.80;;;;;;5036118;28;20041;-89
2021/11/06 11:49:45;;;;;;;3.60;2.72;;;16.50;88.70;;;;;;5019159;28;19921;-89
2021/11/06 11:52:33;;;;;;;2.65;2.15;;;16.60;89.30;;;;;;5037010;28;20055;-90
2021/11/06 11:55:13;;;;;;;2.85;2.40;;;16.60;89.70;;;;;;5018972;28;20049;-90
2021/11/06 11:57:42;;;;;;;2.90;2.13;;;16.50;88.40;;;;;;5018524;28;20072;-90
2021/11/06 12:00:18;;;;;;;2.55;2.10;;;16.30;89.30;;;;;;5035620;28;20391;-90
2021/11/06 12:03:00;;;;;;;6.07;2.70;;;15.40;89.60;;;;;;5034076;28;20052;-88
2021/11/06 12:05:30;;;;;;;3.17;2.28;;;15.60;90.50;;;;;;5019093;28;20516;-88
2021/11/06 12:08:11;;;;;;;4.25;2.88;;;15.50;90.70;;;;;;5026516;28;20096;-90
2021/11/06 12:10:40;;;;;;;3.55;2.67;;;14.90;91.30;;;;;;5015387;28;20065;-90
2021/11/06 12:13:27;;;;;;;4.03;2.67;;;15.00;91.30;;;;;;5016247;28;20049;-90
2021/11/06 12:15:59;;;;;;;4.03;2.80;;;15.60;91.90;;;;;;5015422;28;20048;-89
2021/11/06 12:18:43;;;;;;;7.15;3.03;;;15.90;91.20;;;;;;5015218;28;20057;-90
2021/11/06 12:21:17;;;;;;;3.50;2.92;;;15.40;91.20;;;;;;5015008;28;20046;-90
2021/11/06 12:23:52;;;;;;;2.75;2.55;;;14.80;93.00;;;;;;5016200;28;20421;-90
2021/11/06 12:26:29;;;;;;;6.90;2.72;;;14.80;93.90;;;;;;5014891;28;20520;-90
2021/11/06 12:29:02;;;;;;;4.50;3.10;;;14.70;93.80;;;;;;5013764;28;20068;-90
2021/11/06 12:31:39;;;;;;;4.00;3.28;;;14.30;94.40;;;;;;5015604;28;20410;-90
2021/11/06 12:34:28;;;;;;;6.13;3.88;;;13.70;95.90;;;;;;5013094;28;20079;-89
2021/11/06 12:36:54;;;;;;;5.40;4.05;;;12.60;99.10;;;;;;5013865;28;20057;-89
2021/11/06 12:39:44;;;;;;;12.88;4.53;;;11.90;99.90;;;;;;5014764;28;20045;-89
2021/11/06 12:42:14;;;;;;;7.07;4.10;;;11.30;99.90;;;;;;5014803;28;20049;-89
2021/11/06 12:44:53;;;;;;;6.07;4.18;;;10.90;99.90;;;;;;5015098;28;20056;-89
2021/11/06 12:47:21;;;;;;;4.82;3.72;;;10.50;99.90;;;;;;5014981;28;20491;-89
2021/11/06 12:49:50;;;;;;;7.13;4.53;;;10.20;99.90;;;;;;5014744;28;20050;-88